This is the latest recevied weather packets stored in our database for station/object I1SXT-13. If no packets are shown the sender has not sent any weather packets the latest 10 day(s).
| Time | Temp. | Humidity | Pressure | Rain* | Wind** | Luminosity | Snow |
|---|---|---|---|---|---|---|---|
| 1777631070 | 20° C | 38% | 1027.1 hPa | 0 mm | - | - | - |
| 1777630766 | 19.44° C | 39% | 1027 hPa | 0 mm | - | - | - |
| 1777630469 | 20° C | 41% | 1026.7 hPa | 0 mm | - | - | - |
| 1777630170 | 20° C | 37% | 1027.4 hPa | 0 mm | - | - | - |
| 1777629866 | 20.56° C | 36% | 1026.4 hPa | 0 mm | - | - | - |
| 1777629569 | 20° C | 34% | 1027.5 hPa | 0 mm | - | - | - |
| 1777629265 | 20° C | 35% | 1027.6 hPa | 0 mm | - | - | - |
| 1777628967 | 20° C | 33% | 1027.2 hPa | 0 mm | - | - | - |
| 1777628670 | 20° C | 32% | 1027.2 hPa | 0 mm | - | - | - |
| 1777628366 | 20° C | 33% | 1026.8 hPa | 0 mm | - | - | - |
| 1777628069 | 19.44° C | 34% | 1027.2 hPa | 0 mm | - | - | - |
| 1777627765 | 20° C | 33% | 1026.9 hPa | 0 mm | - | - | - |
| 1777627468 | 20° C | 34% | 1026.2 hPa | 0 mm | - | - | - |
| 1777627164 | 19.44° C | 33% | 1027.1 hPa | 0 mm | - | - | - |
| 1777626867 | 18.89° C | 34% | 1027.2 hPa | 0 mm | - | - | - |
| 1777626569 | 18.89° C | 34% | 1027.5 hPa | 0 mm | - | - | - |
| 1777625367 | 19.44° C | 32% | 1026.9 hPa | 0 mm | - | - | - |
| 1777625069 | 18.89° C | 34% | 1027.3 hPa | 0 mm | - | - | - |
| 1777624765 | 18.89° C | 34% | 1026.7 hPa | 0 mm | - | - | - |
| 1777624468 | 18.33° C | 35% | 1026.4 hPa | 0 mm | - | - | - |
| 1777624164 | 18.33° C | 36% | 1026.4 hPa | 0 mm | - | - | - |
| 1777623867 | 18.33° C | 36% | 1026.7 hPa | 0 mm | - | - | - |
| 1777623570 | 18.33° C | 37% | 1027.1 hPa | 0 mm | - | - | - |
| 1777623266 | 18.33° C | 33% | 1027.4 hPa | 0 mm | - | - | - |
| 1777622969 | 18.33° C | 35% | 1026 hPa | 0 mm | - | - | - |
* Rain since midnight (hover to see other rain measurements)
** Current wind speed in m/s (hover to see current wind gust speed)